Capitol Logistics 422


KMIA
Miami International Airport
Miami, Florida, US
MZBZ
Philip S.W. Goldson International Airport
Belize City, , BZ

Route Details

Aircraft Information
Primary: Boeing 757-200SF
Backup: Not Available
Route Data
Distance: 704nm
Sched. Duration: 1h 44m
Avg. Duration: 1h 71m (+26m)
Times Flown: 9
Recm'd Route: MNATE2 MNATE MTH B646 FIS G765 MAXIM UG765 FRANT UG765 CZM UB764 TAMDA TAMD1A
Planned Altitude: 34,000ft
Origin Wx: KMIA 310653Z 00000KT 10SM BKN017 24/22 A2998 RMK AO2 SLP151 T02440217
Dest. Wx: MZBZ 310000Z 09007KT 9999 FEW020 28/24 A2990 Q1012 NOSIG
Notes:

Financial History
Total Freight: 435,343lbs
Average Load: 48,371lbs/flt
Fuel Used: 126,497lbs
Avg. Fuel Used: 14,055lbs/flt
Fuel Expense: $155,591
Avg. Fuel Expense: $17,288
Avg. Fuel Cost: $1.23/lbs
Total Gross Income: $700,902
Pilot Pay: $1,261
Total Expenses: $76,165
Total Revenue: $465,315
Average Revenue: $77,877.99